createdAt,value
2022-12-25T00:01:13.872Z,97274.13
2022-12-25T00:03:42.099Z,97277.06
2022-12-25T00:06:10.417Z,97277.06
2022-12-25T00:08:39.860Z,97286.69
2022-12-25T00:11:10.345Z,97297.41
2022-12-25T00:13:40.287Z,97292.88
2022-12-25T00:16:10.342Z,97288.59
2022-12-25T00:18:38.785Z,97292.06
2022-12-25T00:21:07.871Z,97302.78
2022-12-25T00:23:36.317Z,97297.44
2022-12-25T00:26:06.120Z,97297.97
2022-12-25T00:28:34.325Z,97306.53
2022-12-25T00:31:07.316Z,97303.28
2022-12-25T00:33:36.554Z,97306.53
2022-12-25T00:36:06.268Z,97303.56
2022-12-25T00:38:35.641Z,97301.66
2022-12-25T00:41:06.367Z,97303.00
2022-12-25T00:43:34.481Z,97310.22
2022-12-25T00:46:04.165Z,97300.34
2022-12-25T00:48:34.099Z,97297.38
2022-12-25T00:51:04.085Z,97297.41
2022-12-25T00:53:32.286Z,97296.84
2022-12-25T00:56:02.303Z,97295.22
2022-12-25T00:58:32.332Z,97285.09
2022-12-25T01:01:00.568Z,97290.72
2022-12-25T01:03:29.204Z,97294.72
2022-12-25T01:06:00.635Z,97297.13
2022-12-25T01:08:28.999Z,97300.06
2022-12-25T01:10:57.099Z,97300.63
2022-12-25T01:13:26.158Z,97299.56
2022-12-25T01:15:54.575Z,97303.31
2022-12-25T01:18:24.294Z,97300.91
2022-12-25T01:20:52.587Z,97301.44
2022-12-25T01:23:22.024Z,97305.72
2022-12-25T01:25:50.227Z,97304.09
2022-12-25T01:28:18.372Z,97300.91
2022-12-25T01:30:49.681Z,97299.56
2022-12-25T01:33:17.829Z,97292.09
2022-12-25T01:35:45.991Z,97293.72
2022-12-25T01:38:14.138Z,97295.84
2022-12-25T01:40:43.560Z,97292.63
2022-12-25T01:43:24.120Z,97294.78
2022-12-25T01:45:53.538Z,97302.28
2022-12-25T01:48:25.055Z,97312.19
2022-12-25T01:50:55.614Z,97320.97
2022-12-25T01:53:24.279Z,97325.25
2022-12-25T01:55:57.517Z,97320.19
2022-12-25T01:58:26.248Z,97320.72
2022-12-25T02:00:54.643Z,97320.19
2022-12-25T02:03:23.420Z,97327.94
2022-12-25T02:05:52.486Z,97323.66
2022-12-25T02:08:22.447Z,97330.06
2022-12-25T02:10:50.710Z,97318.88
2022-12-25T02:13:21.187Z,97317.25
2022-12-25T02:15:56.272Z,97313.78
2022-12-25T02:18:36.106Z,97307.63
2022-12-25T02:21:31.497Z,97306.81
2022-12-25T02:24:11.290Z,97305.50
2022-12-25T02:26:52.490Z,97308.69
2022-12-25T02:29:25.995Z,97307.38
2022-12-25T02:31:59.425Z,97302.03
2022-12-25T02:34:33.998Z,97306.31
2022-12-25T02:37:07.391Z,97306.56
2022-12-25T02:39:59.812Z,97313.22
2022-12-25T02:43:04.722Z,97302.81
2022-12-25T02:45:54.671Z,97305.50
2022-12-25T02:48:42.405Z,97295.63
2022-12-25T02:51:30.393Z,97306.03
2022-12-25T02:54:18.771Z,97304.41
2022-12-25T02:57:05.998Z,97297.97
2022-12-25T02:59:54.035Z,97293.72
2022-12-25T03:02:42.531Z,97288.38
2022-12-25T03:05:30.481Z,97295.59
2022-12-25T03:08:00.562Z,97299.59
2022-12-25T03:10:46.767Z,97298.72
2022-12-25T03:13:17.593Z,97296.81
2022-12-25T03:16:03.996Z,97302.63
2022-12-25T03:18:34.110Z,97294.66
2022-12-25T03:21:19.546Z,97286.09
2022-12-25T03:24:08.508Z,97291.44
2022-12-25T03:26:54.243Z,97281.25
2022-12-25T03:29:36.320Z,97281.16
2022-12-25T03:32:13.116Z,97281.97
2022-12-25T03:35:03.485Z,97274.78
2022-12-25T03:38:01.233Z,97270.81
2022-12-25T03:40:47.776Z,97268.22
2022-12-25T03:43:40.271Z,97271.69
2022-12-25T03:46:35.466Z,97267.97
2022-12-25T03:49:27.546Z,97260.53
2022-12-25T03:52:17.015Z,97258.41
2022-12-25T03:55:04.386Z,97261.88
2022-12-25T03:57:52.738Z,97262.19
2022-12-25T04:00:38.430Z,97262.69
2022-12-25T04:03:24.210Z,97256.84
2022-12-25T04:06:10.214Z,97256.28
2022-12-25T04:08:56.958Z,97258.72
2022-12-25T04:11:42.734Z,97259.50
2022-12-25T04:14:28.486Z,97263.28
2022-12-25T04:17:14.377Z,97255.78
2022-12-25T04:19:59.971Z,97245.63
2022-12-25T04:22:45.704Z,97248.81
2022-12-25T04:25:33.132Z,97256.84
2022-12-25T04:28:20.103Z,97262.47
2022-12-25T04:31:20.572Z,97255.75
2022-12-25T04:34:17.699Z,97245.06
2022-12-25T04:36:45.817Z,97246.69
2022-12-25T04:39:14.316Z,97239.47
2022-12-25T04:41:43.761Z,97243.50
2022-12-25T04:44:11.968Z,97237.09
2022-12-25T04:46:40.521Z,97242.94
2022-12-25T04:49:08.648Z,97238.41
2022-12-25T04:51:37.782Z,97237.59
2022-12-25T04:54:06.067Z,97241.88
2022-12-25T04:56:36.404Z,97233.84
2022-12-25T04:59:08.219Z,97235.47
2022-12-25T05:01:36.570Z,97237.06
2022-12-25T05:04:04.839Z,97224.22
2022-12-25T05:06:33.011Z,97220.47
2022-12-25T05:09:01.184Z,97222.09
2022-12-25T05:11:29.272Z,97224.50
2022-12-25T05:13:58.324Z,97233.34
2022-12-25T05:16:27.897Z,97236.53
2022-12-25T05:18:56.022Z,97230.66
2022-12-25T05:21:24.211Z,97225.31
2022-12-25T05:23:53.019Z,97226.91
2022-12-25T05:26:22.534Z,97225.00
2022-12-25T05:28:51.012Z,97230.66
2022-12-25T05:31:19.735Z,97229.84
2022-12-25T05:33:52.291Z,97225.03
2022-12-25T05:36:20.730Z,97222.09
2022-12-25T05:38:48.893Z,97225.84
2022-12-25T05:41:17.108Z,97230.63
2022-12-25T05:43:45.354Z,97226.34
2022-12-25T05:46:14.528Z,97233.28
2022-12-25T05:48:42.939Z,97215.94
2022-12-25T05:51:15.076Z,97224.75
2022-12-25T05:53:44.477Z,97226.38
2022-12-25T05:56:13.023Z,97225.59
2022-12-25T05:58:41.628Z,97226.09
2022-12-25T06:01:13.952Z,97229.56
2022-12-25T06:03:42.207Z,97235.47
2022-12-25T06:06:12.778Z,97225.31
2022-12-25T06:08:41.086Z,97222.91
2022-12-25T06:11:10.382Z,97228.25
2022-12-25T06:13:39.054Z,97224.78
2022-12-25T06:16:08.207Z,97229.59
2022-12-25T06:18:37.379Z,97231.75
2022-12-25T06:21:08.389Z,97233.59
2022-12-25T06:23:38.208Z,97229.31
2022-12-25T06:26:07.294Z,97231.47
2022-12-25T06:28:35.497Z,97222.91
2022-12-25T06:31:07.782Z,97226.13
2022-12-25T06:33:36.718Z,97233.84
2022-12-25T06:36:09.001Z,97233.34
2022-12-25T06:38:38.650Z,97234.94
2022-12-25T06:41:08.346Z,97225.31
2022-12-25T06:43:36.535Z,97234.94
2022-12-25T06:46:05.853Z,97221.59
2022-12-25T06:48:34.421Z,97222.66
2022-12-25T06:51:04.157Z,97220.50
2022-12-25T06:53:39.925Z,97219.97
2022-12-25T06:56:18.871Z,97222.66
2022-12-25T06:58:49.069Z,97222.91
2022-12-25T07:01:20.424Z,97241.06
2022-12-25T07:03:49.772Z,97242.41
2022-12-25T07:06:18.733Z,97244.53
2022-12-25T07:08:46.947Z,97248.03
2022-12-25T07:11:16.486Z,97233.06
2022-12-25T07:13:45.180Z,97245.59
2022-12-25T07:16:14.231Z,97238.63
2022-12-25T07:18:42.737Z,97241.03
2022-12-25T07:21:13.078Z,97234.88
2022-12-25T07:23:41.534Z,97238.66
2022-12-25T07:26:11.416Z,97250.94
2022-12-25T07:28:41.266Z,97242.38
2022-12-25T07:31:12.078Z,97246.13
2022-12-25T07:33:40.723Z,97237.06
2022-12-25T07:36:12.916Z,97239.22
2022-12-25T07:38:41.668Z,97241.88
2022-12-25T07:41:11.081Z,97235.47
2022-12-25T07:43:40.879Z,97226.91
2022-12-25T07:46:09.306Z,97233.88
2022-12-25T07:48:38.487Z,97239.72
2022-12-25T07:51:08.310Z,97232.78
2022-12-25T07:53:37.182Z,97236.53
2022-12-25T07:56:07.519Z,97239.19
2022-12-25T07:58:35.951Z,97245.59
2022-12-25T08:01:07.244Z,97242.13
2022-12-25T08:03:36.276Z,97244.53
2022-12-25T08:06:06.856Z,97246.66
2022-12-25T08:08:35.321Z,97233.88
2022-12-25T08:11:03.778Z,97223.19
2022-12-25T08:13:32.247Z,97226.38
2022-12-25T08:16:01.448Z,97235.97
2022-12-25T08:18:31.786Z,97248.81
2022-12-25T08:21:03.733Z,97239.22
2022-12-25T08:23:31.922Z,97224.25
2022-12-25T08:26:04.909Z,97228.53
2022-12-25T08:28:34.379Z,97225.31
2022-12-25T08:31:07.790Z,97234.16
2022-12-25T08:33:38.036Z,97239.75
2022-12-25T08:36:07.715Z,97215.16
2022-12-25T08:38:36.005Z,97223.72
2022-12-25T08:41:04.271Z,97227.47
2022-12-25T08:43:32.494Z,97225.84
2022-12-25T08:46:00.926Z,97222.91
2022-12-25T08:48:29.244Z,97226.38
2022-12-25T08:50:58.764Z,97213.03
2022-12-25T08:53:27.018Z,97209.84
2022-12-25T08:55:59.159Z,97207.41
2022-12-25T08:58:28.809Z,97213.56
2022-12-25T09:00:57.260Z,97203.41
2022-12-25T09:03:25.946Z,97223.16
2022-12-25T09:05:54.806Z,97227.19
2022-12-25T09:08:24.396Z,97221.03
2022-12-25T09:10:52.558Z,97223.19
2022-12-25T09:13:20.813Z,97220.50
2022-12-25T09:15:49.064Z,97221.03
2022-12-25T09:18:17.154Z,97216.50
2022-12-25T09:20:45.488Z,97221.81
2022-12-25T09:23:14.468Z,97205.53
2022-12-25T09:25:44.002Z,97202.28
2022-12-25T09:28:12.114Z,97200.16
2022-12-25T09:30:40.326Z,97206.31
2022-12-25T09:33:08.492Z,97203.34
2022-12-25T09:35:36.688Z,97211.38
2022-12-25T09:38:04.899Z,97206.28
2022-12-25T09:40:33.674Z,97212.13
2022-12-25T09:43:04.467Z,97200.59
2022-12-25T09:45:35.855Z,97194.44
2022-12-25T09:48:04.488Z,97187.19
2022-12-25T09:50:41.338Z,97177.84
2022-12-25T09:53:12.104Z,97169.50
2022-12-25T09:55:46.426Z,97188.19
2022-12-25T09:58:15.942Z,97183.91
2022-12-25T10:00:47.643Z,97188.47
2022-12-25T10:03:23.880Z,97202.09
2022-12-25T10:06:00.489Z,97203.44
2022-12-25T10:08:41.188Z,97197.25
2022-12-25T10:11:18.928Z,97204.22
2022-12-25T10:13:59.935Z,97201.25
2022-12-25T10:16:35.462Z,97192.91
2022-12-25T10:19:15.992Z,97200.63
2022-12-25T10:21:44.459Z,97204.63
2022-12-25T10:24:20.713Z,97208.31
2022-12-25T10:26:50.157Z,97201.59
2022-12-25T10:29:21.255Z,97204.53
2022-12-25T10:31:51.215Z,97199.63
2022-12-25T10:34:19.811Z,97186.50
2022-12-25T10:36:50.074Z,97181.91
2022-12-25T10:39:19.282Z,97169.00
2022-12-25T10:42:12.611Z,97167.94
2022-12-25T10:44:42.058Z,97156.94
2022-12-25T10:47:10.215Z,97154.00
2022-12-25T10:49:39.892Z,97148.63
2022-12-25T10:52:20.527Z,97144.88
2022-12-25T10:54:49.040Z,97141.13
2022-12-25T10:57:18.932Z,97139.47
2022-12-25T10:59:50.326Z,97138.06
2022-12-25T11:02:22.993Z,97133.47
2022-12-25T11:04:51.873Z,97131.44
2022-12-25T11:07:24.260Z,97126.56
2022-12-25T11:09:55.442Z,97123.81
2022-12-25T11:12:31.051Z,97115.25
2022-12-25T11:15:03.322Z,97109.88
2022-12-25T11:17:31.423Z,97114.69
2022-12-25T11:20:01.069Z,97110.19
2022-12-25T11:22:29.594Z,97119.28
2022-12-25T11:24:57.652Z,97111.31
2022-12-25T11:27:27.621Z,97109.59
2022-12-25T11:29:58.453Z,97111.13
2022-12-25T11:32:31.169Z,97107.91
2022-12-25T11:35:00.197Z,97104.63
2022-12-25T11:37:34.176Z,97089.69
2022-12-25T11:40:02.748Z,97092.81
2022-12-25T11:42:33.912Z,97084.50
2022-12-25T11:45:04.239Z,97078.53
2022-12-25T11:47:37.552Z,97084.03
2022-12-25T11:50:09.027Z,97072.56
2022-12-25T11:52:38.709Z,97076.59
2022-12-25T11:55:12.025Z,97067.94
2022-12-25T11:57:40.684Z,97078.81
2022-12-25T12:00:12.376Z,97082.28
2022-12-25T12:02:45.387Z,97079.91
2022-12-25T12:05:19.128Z,97062.41
2022-12-25T12:07:55.080Z,97065.63
2022-12-25T12:10:29.575Z,97063.44
2022-12-25T12:13:07.675Z,97052.66
2022-12-25T12:15:42.243Z,97052.13
2022-12-25T12:18:20.579Z,97055.25
2022-12-25T12:20:59.031Z,97058.97
2022-12-25T12:23:28.408Z,97050.97
2022-12-25T12:25:56.947Z,97047.13
2022-12-25T12:28:27.741Z,97033.66
2022-12-25T12:31:01.444Z,97020.03
2022-12-25T12:33:34.682Z,97015.56
2022-12-25T12:36:04.494Z,97008.03
2022-12-25T12:38:34.044Z,97018.34
2022-12-25T12:41:03.385Z,97020.34
2022-12-25T12:43:34.622Z,97022.84
2022-12-25T12:46:07.161Z,97017.31
2022-12-25T12:48:45.045Z,97018.34
2022-12-25T12:51:15.174Z,97005.41
2022-12-25T12:53:44.085Z,96991.34
2022-12-25T12:56:16.081Z,96994.09
2022-12-25T12:58:48.559Z,96993.09
2022-12-25T13:01:46.316Z,96991.34
2022-12-25T13:04:46.967Z,96989.16
2022-12-25T13:07:26.892Z,96990.91
2022-12-25T13:10:05.380Z,96999.03
2022-12-25T13:12:33.642Z,96996.84
2022-12-25T13:15:02.024Z,97008.88
2022-12-25T13:17:30.327Z,97003.06
2022-12-25T13:20:01.256Z,97001.41
2022-12-25T13:22:32.461Z,97000.81
2022-12-25T13:25:02.215Z,96999.72
2022-12-25T13:27:31.856Z,97000.25
2022-12-25T13:30:00.473Z,96999.16
2022-12-25T13:32:31.243Z,97001.34
2022-12-25T13:35:01.174Z,96991.66
2022-12-25T13:37:31.360Z,96994.97
2022-12-25T13:40:01.775Z,96987.38
2022-12-25T13:42:32.229Z,96991.97
2022-12-25T13:45:01.549Z,96981.03
2022-12-25T13:47:32.909Z,96980.41
2022-12-25T13:50:14.669Z,96972.34
2022-12-25T13:52:43.215Z,96978.91
2022-12-25T13:55:13.961Z,96974.03
2022-12-25T13:57:45.300Z,96968.09
2022-12-25T14:00:19.543Z,96974.84
2022-12-25T14:02:48.543Z,96975.84
2022-12-25T14:05:42.837Z,96970.31
2022-12-25T14:08:15.614Z,96984.06
2022-12-25T14:10:46.003Z,96987.53
2022-12-25T14:13:15.488Z,96979.31
2022-12-25T14:15:44.973Z,96977.47
2022-12-25T14:18:15.681Z,96984.63
2022-12-25T14:20:57.845Z,96972.69
2022-12-25T14:23:26.121Z,96974.88
2022-12-25T14:25:54.276Z,96973.28
2022-12-25T14:28:32.448Z,96965.59
2022-12-25T14:31:01.556Z,96972.44
2022-12-25T14:33:33.915Z,96975.84
2022-12-25T14:36:03.891Z,96974.66
2022-12-25T14:38:35.144Z,96976.50
2022-12-25T14:41:05.471Z,96976.22
2022-12-25T14:43:36.407Z,96972.06
2022-12-25T14:46:06.870Z,96976.31
2022-12-25T14:48:35.328Z,96980.41
2022-12-25T14:51:07.027Z,96987.13
2022-12-25T14:53:39.935Z,96993.09
2022-12-25T14:56:10.250Z,96990.34
2022-12-25T14:58:42.735Z,96985.63
2022-12-25T15:01:22.030Z,96989.09
2022-12-25T15:03:50.487Z,96993.16
2022-12-25T15:06:22.580Z,96994.19
2022-12-25T15:08:58.775Z,96992.59
2022-12-25T15:11:27.213Z,96990.63
2022-12-25T15:13:55.473Z,96998.19
2022-12-25T15:16:25.339Z,97000.34
2022-12-25T15:18:54.022Z,96988.38
2022-12-25T15:21:26.822Z,96994.03
2022-12-25T15:23:55.515Z,96992.66
2022-12-25T15:26:24.277Z,96987.44
2022-12-25T15:28:52.557Z,96995.09
2022-12-25T15:31:23.459Z,96986.56
2022-12-25T15:33:52.304Z,96978.00
2022-12-25T15:36:20.552Z,96971.63
2022-12-25T15:38:50.080Z,96961.69
2022-12-25T15:41:34.455Z,96963.38
2022-12-25T15:44:02.531Z,96969.81
2022-12-25T15:46:55.593Z,96970.59
2022-12-25T15:49:23.681Z,96965.81
2022-12-25T15:51:51.855Z,96970.47
2022-12-25T15:54:21.388Z,96974.47
2022-12-25T15:56:51.640Z,96969.59
2022-12-25T15:59:20.936Z,96960.75
2022-12-25T16:01:50.727Z,96969.81
2022-12-25T16:04:18.917Z,96971.25
2022-12-25T16:06:47.569Z,96976.97
2022-12-25T16:09:16.925Z,96978.38
2022-12-25T16:11:46.600Z,96990.63
2022-12-25T16:14:15.211Z,96994.09
2022-12-25T16:16:43.673Z,96983.16
2022-12-25T16:19:11.813Z,96989.44
2022-12-25T16:21:42.431Z,96982.03
2022-12-25T16:24:12.207Z,96983.91
2022-12-25T16:26:40.898Z,96997.66
2022-12-25T16:29:10.861Z,96994.84
2022-12-25T16:31:39.635Z,96984.19
2022-12-25T16:34:08.742Z,96980.72
2022-12-25T16:36:37.546Z,96979.66
2022-12-25T16:39:06.385Z,96978.75
2022-12-25T16:41:34.658Z,96980.91
2022-12-25T16:44:09.229Z,96976.13
2022-12-25T16:46:41.206Z,96971.91
2022-12-25T16:49:09.486Z,96968.72
2022-12-25T16:51:37.611Z,96972.72
2022-12-25T16:54:06.012Z,96974.03
2022-12-25T16:56:36.521Z,96972.59
2022-12-25T16:59:04.722Z,96977.56
2022-12-25T17:01:32.959Z,96967.41
2022-12-25T17:04:02.746Z,96971.59
2022-12-25T17:06:31.131Z,96968.78
2022-12-25T17:09:02.302Z,96975.97
2022-12-25T17:11:30.752Z,96983.03
2022-12-25T17:13:59.915Z,96978.13
2022-12-25T17:16:30.061Z,96977.47
2022-12-25T17:19:01.337Z,96977.41
2022-12-25T17:21:32.690Z,96971.84
2022-12-25T17:24:03.558Z,96978.59
2022-12-25T17:26:32.169Z,96973.47
2022-12-25T17:29:00.617Z,96972.66
2022-12-25T17:31:29.225Z,96973.75
2022-12-25T17:33:57.778Z,96970.56
2022-12-25T17:36:25.941Z,96959.91
2022-12-25T17:38:55.471Z,96959.44
2022-12-25T17:41:23.532Z,96964.78
2022-12-25T17:43:51.666Z,96966.94
2022-12-25T17:46:21.515Z,96954.75
2022-12-25T17:48:50.455Z,96960.38
2022-12-25T17:51:22.247Z,96965.22
2022-12-25T17:53:51.746Z,96966.19
2022-12-25T17:56:21.924Z,96972.69
2022-12-25T17:58:51.679Z,96967.34
2022-12-25T18:01:20.468Z,96972.44
2022-12-25T18:03:48.838Z,96965.78
2022-12-25T18:06:18.989Z,96966.63
2022-12-25T18:08:48.100Z,96960.19
2022-12-25T18:11:18.213Z,96963.72
2022-12-25T18:13:50.034Z,96957.88
2022-12-25T18:16:19.173Z,96983.91
2022-12-25T18:18:51.917Z,96979.69
2022-12-25T18:21:20.964Z,96977.84
2022-12-25T18:23:49.610Z,96978.41
2022-12-25T18:26:18.391Z,96985.44
2022-12-25T18:28:48.627Z,96991.03
2022-12-25T18:31:19.072Z,96986.50
2022-12-25T18:33:47.723Z,96985.50
2022-12-25T18:36:17.905Z,96964.19
2022-12-25T18:38:45.998Z,96993.53
2022-12-25T18:41:14.180Z,96982.63
2022-12-25T18:43:52.125Z,96987.69
2022-12-25T18:46:25.986Z,96985.28
2022-12-25T18:48:54.971Z,96989.56
2022-12-25T18:51:23.146Z,96987.16
2022-12-25T18:53:52.038Z,96988.75
2022-12-25T18:56:21.070Z,97004.75
2022-12-25T18:58:49.296Z,97000.50
2022-12-25T19:01:19.401Z,96989.59
2022-12-25T19:03:50.990Z,96989.88
2022-12-25T19:06:43.540Z,96986.13
2022-12-25T19:09:11.911Z,96989.34
2022-12-25T19:11:46.585Z,96981.06
2022-12-25T19:14:15.873Z,96976.78
2022-12-25T19:16:44.512Z,96981.59
2022-12-25T19:19:15.697Z,96989.84
2022-12-25T19:21:43.955Z,96990.41
2022-12-25T19:24:12.174Z,96990.91
2022-12-25T19:26:40.439Z,96994.13
2022-12-25T19:29:08.753Z,96988.53
2022-12-25T19:31:38.269Z,96981.31
2022-12-25T19:34:06.786Z,96982.03
2022-12-25T19:36:36.344Z,96988.66
2022-12-25T19:39:05.653Z,96997.78
2022-12-25T19:41:34.282Z,96983.38
2022-12-25T19:44:02.940Z,96988.19
2022-12-25T19:46:33.386Z,97001.00
2022-12-25T19:49:04.323Z,96996.75
2022-12-25T19:51:35.071Z,97007.41
2022-12-25T19:54:05.669Z,97010.06
2022-12-25T19:56:34.421Z,97003.94
2022-12-25T19:59:02.566Z,96995.97
2022-12-25T20:01:31.503Z,96992.22
2022-12-25T20:03:59.729Z,96992.47
2022-12-25T20:06:29.916Z,96990.34
2022-12-25T20:09:00.383Z,96999.94
2022-12-25T20:11:31.309Z,97003.69
2022-12-25T20:13:59.853Z,97003.13
2022-12-25T20:16:28.201Z,97012.75
2022-12-25T20:18:56.875Z,96998.34
2022-12-25T20:21:27.223Z,96998.94
2022-12-25T20:23:55.614Z,97001.59
2022-12-25T20:26:27.801Z,97001.03
2022-12-25T20:28:58.083Z,97001.03
2022-12-25T20:31:28.454Z,96997.31
2022-12-25T20:33:57.374Z,96998.66
2022-12-25T20:36:29.656Z,96997.06
2022-12-25T20:39:02.756Z,96998.38
2022-12-25T20:41:30.966Z,96996.25
2022-12-25T20:44:01.885Z,96994.13
2022-12-25T20:46:30.212Z,96998.38
2022-12-25T20:48:58.450Z,96994.41
2022-12-25T20:51:27.365Z,97002.41
2022-12-25T20:53:55.949Z,96998.13
2022-12-25T20:56:26.095Z,96995.19
2022-12-25T20:58:55.590Z,96988.53
2022-12-25T21:01:25.521Z,96998.13
2022-12-25T21:03:54.393Z,96987.72
2022-12-25T21:06:22.975Z,96995.19
2022-12-25T21:08:51.191Z,97000.78
2022-12-25T21:11:21.303Z,97007.47
2022-12-25T21:13:50.107Z,97013.06
2022-12-25T21:16:20.323Z,97005.88
2022-12-25T21:18:50.780Z,97021.31
2022-12-25T21:21:19.368Z,97023.19
2022-12-25T21:23:47.881Z,97033.34
2022-12-25T21:26:18.507Z,97028.00
2022-12-25T21:28:46.852Z,97033.25
2022-12-25T21:31:15.038Z,97030.56
2022-12-25T21:33:51.371Z,97038.31
2022-12-25T21:36:23.320Z,97042.06
2022-12-25T21:38:54.059Z,97043.19
2022-12-25T21:41:22.211Z,97044.72
2022-12-25T21:43:50.295Z,97050.56
2022-12-25T21:46:18.596Z,97051.38
2022-12-25T21:48:46.961Z,97047.63
2022-12-25T21:51:34.175Z,97053.69
2022-12-25T21:54:04.340Z,97053.19
2022-12-25T21:56:36.103Z,97065.72
2022-12-25T21:59:09.619Z,97069.75
2022-12-25T22:01:38.915Z,97073.78
2022-12-25T22:04:08.862Z,97075.13
2022-12-25T22:06:54.670Z,97075.19
2022-12-25T22:09:24.483Z,97066.66
2022-12-25T22:12:10.210Z,97065.03
2022-12-25T22:14:56.363Z,97068.25
2022-12-25T22:17:43.990Z,97069.88
2022-12-25T22:20:14.283Z,97075.72
2022-12-25T22:22:42.406Z,97069.53
2022-12-25T22:25:12.602Z,97074.31
2022-12-25T22:27:41.730Z,97070.88
2022-12-25T22:30:12.363Z,97084.97
2022-12-25T22:32:41.448Z,97081.50
2022-12-25T22:35:12.252Z,97071.66
2022-12-25T22:37:40.926Z,97073.00
2022-12-25T22:40:12.501Z,97075.66
2022-12-25T22:42:41.625Z,97072.44
2022-12-25T22:45:11.899Z,97068.50
2022-12-25T22:47:40.554Z,97070.94
2022-12-25T22:50:09.329Z,97068.25
2022-12-25T22:52:37.724Z,97072.53
2022-12-25T22:55:07.671Z,97071.75
2022-12-25T22:57:37.583Z,97071.47
2022-12-25T23:00:08.942Z,97078.44
2022-12-25T23:02:37.248Z,97076.81
2022-12-25T23:05:06.184Z,97074.19
2022-12-25T23:07:34.274Z,97084.84
2022-12-25T23:10:02.422Z,97083.25
2022-12-25T23:12:47.530Z,97079.78
2022-12-25T23:15:17.205Z,97080.56
2022-12-25T23:18:03.024Z,97078.44
2022-12-25T23:20:48.812Z,97083.25
2022-12-25T23:23:35.001Z,97087.50
2022-12-25T23:26:09.696Z,97084.59
2022-12-25T23:28:56.095Z,97087.78
2022-12-25T23:31:27.480Z,97086.72
2022-12-25T23:33:55.770Z,97086.97
2022-12-25T23:36:24.037Z,97091.00
2022-12-25T23:38:52.118Z,97091.50
2022-12-25T23:41:20.312Z,97090.72
2022-12-25T23:43:48.448Z,97087.50
2022-12-25T23:46:16.903Z,97090.75
2022-12-25T23:48:46.750Z,97101.38
2022-12-25T23:51:15.223Z,97097.09
2022-12-25T23:53:43.279Z,97092.31
2022-12-25T23:56:36.207Z,97099.50
2022-12-25T23:59:04.931Z,97099.47
